Time;durP1;ratioP1;P1;durP2;ratioP2;P2;SDS_P1;SDS_P2;PMS_P1;PMS_P2;Temp;Humidity;BMP_temperature;BMP_pressure;BME280_temperature;BME280_humidity;BME280_pressure;Samples;Min_cycle;Max_cycle;Signal;HPM_P1;HPM_P2
2022/12/25 00:00:33;;;;;;;5.70;2.25;;;;;;;10.02;nan;100651.16;4992391;28;20137;-87
2022/12/25 00:02:59;;;;;;;4.18;1.95;;;;;;;10.02;nan;100656.47;4990664;28;20034;-87
2022/12/25 00:05:25;;;;;;;6.75;2.60;;;;;;;10.02;nan;100667.03;4989605;28;20092;-86
2022/12/25 00:07:50;;;;;;;4.18;2.13;;;;;;;10.03;nan;100663.38;4992525;28;20058;-87
2022/12/25 00:10:16;;;;;;;3.75;2.10;;;;;;;10.02;nan;100667.84;4990222;28;20046;-84
2022/12/25 00:12:41;;;;;;;4.82;2.22;;;;;;;10.03;nan;100674.78;4992683;28;20027;-85
2022/12/25 00:15:07;;;;;;;4.20;2.28;;;;;;;10.05;nan;100674.66;4990390;28;20035;-85
2022/12/25 00:17:32;;;;;;;6.03;2.47;;;;;;;10.08;nan;100679.63;4990336;28;20085;-85
2022/12/25 00:19:57;;;;;;;4.22;2.38;;;;;;;10.08;nan;100677.84;4990357;28;20046;-85
2022/12/25 00:22:23;;;;;;;5.40;2.17;;;;;;;10.09;nan;100665.47;5002665;28;20031;-86
2022/12/25 00:24:48;;;;;;;4.35;2.08;;;;;;;10.09;nan;100654.91;4991145;28;20076;-85
2022/12/25 00:27:14;;;;;;;4.85;1.70;;;;;;;10.10;nan;100648.63;4992019;28;20042;-85
2022/12/25 00:29:39;;;;;;;4.07;2.10;;;;;;;10.09;nan;100641.69;4992337;28;20030;-85
2022/12/25 00:32:05;;;;;;;6.57;2.40;;;;;;;10.09;nan;100639.88;4990965;28;20118;-85
2022/12/25 00:34:30;;;;;;;6.53;2.05;;;;;;;10.08;nan;100632.94;4990049;28;20033;-85
2022/12/25 00:36:55;;;;;;;4.35;2.08;;;;;;;10.11;nan;100637.09;4991411;28;20497;-85
2022/12/25 00:39:21;;;;;;;4.68;2.10;;;;;;;10.10;nan;100646.81;4994773;28;20042;-86
2022/12/25 00:44:30;;;;;;;10.13;2.42;;;;;;;10.09;nan;100634.59;4991864;28;20049;-84
2022/12/25 00:46:56;;;;;;;6.18;2.30;;;;;;;10.08;nan;100632.94;4992250;28;20038;-84
2022/12/25 00:49:24;;;;;;;8.35;2.65;;;;;;;10.12;nan;100636.94;4994813;28;20053;-84
2022/12/25 00:51:50;;;;;;;5.72;2.15;;;;;;;10.12;nan;100638.75;4997417;28;20049;-85
2022/12/25 00:54:16;;;;;;;6.65;1.98;;;;;;;10.14;nan;100642.91;4993154;28;20745;-86
2022/12/25 00:56:42;;;;;;;6.32;2.20;;;;;;;10.13;nan;100645.69;4993285;28;20034;-86
2022/12/25 00:59:07;;;;;;;5.13;1.92;;;;;;;10.12;nan;100641.38;4995036;28;20570;-86
2022/12/25 01:01:32;;;;;;;4.53;1.92;;;;;;;10.12;nan;100639.56;4996912;28;20692;-84
2022/12/25 01:03:59;;;;;;;6.18;2.05;;;;;;;10.14;nan;100650.00;4994179;28;20038;-85
2022/12/25 01:06:24;;;;;;;3.92;1.77;;;;;;;10.15;nan;100659.59;4992998;28;20117;-85
2022/12/25 01:11:34;;;;;;;5.32;2.05;;;;;;;10.17;nan;100660.28;4992566;28;20039;-84
2022/12/25 01:14:00;;;;;;;4.70;2.15;;;;;;;10.15;nan;100660.44;4993736;28;20665;-84
2022/12/25 01:16:25;;;;;;;6.00;2.30;;;;;;;10.15;nan;100678.09;5004900;28;20102;-86
2022/12/25 01:18:51;;;;;;;6.93;2.20;;;;;;;10.14;nan;100673.78;4993818;28;20038;-85
2022/12/25 01:21:19;;;;;;;4.82;2.03;;;;;;;10.14;nan;100671.13;4988745;28;20051;-85
2022/12/25 01:23:46;;;;;;;6.45;1.92;;;;;;;10.15;nan;100668.38;4986343;28;20045;-85
2022/12/25 01:26:13;;;;;;;4.97;1.83;;;;;;;10.14;nan;100671.97;4991970;28;20034;-84
2022/12/25 01:28:40;;;;;;;5.18;2.10;;;;;;;10.15;nan;100673.66;4994019;28;20053;-84
2022/12/25 01:31:09;;;;;;;4.82;1.83;;;;;;;10.13;nan;100666.81;4981983;28;20050;-85
2022/12/25 01:33:35;;;;;;;4.32;1.80;;;;;;;10.14;nan;100668.50;4992336;28;20030;-85
2022/12/25 01:36:01;;;;;;;6.40;2.08;;;;;;;10.13;nan;100667.69;4983837;28;20053;-85
2022/12/25 01:38:27;;;;;;;4.88;1.80;;;;;;;10.15;nan;100672.78;4987598;28;20038;-84
2022/12/25 01:40:53;;;;;;;5.82;2.30;;;;;;;10.13;nan;100669.47;4989989;28;20121;-85
2022/12/25 01:43:25;;;;;;;5.45;1.88;;;;;;;10.13;nan;100680.88;4999005;28;20492;-84
2022/12/25 01:45:52;;;;;;;4.70;2.17;;;;;;;10.12;nan;100686.31;5005799;28;20499;-85
2022/12/25 01:48:24;;;;;;;4.65;1.90;;;;;;;10.13;nan;100682.66;4973196;28;20081;-84
2022/12/25 01:50:59;;;;;;;4.45;1.75;;;;;;;10.14;nan;100685.19;4990736;28;20048;-84
2022/12/25 01:53:25;;;;;;;4.20;1.70;;;;;;;10.15;nan;100676.28;4987006;28;20041;-86
2022/12/25 01:55:57;;;;;;;4.45;1.90;;;;;;;10.15;nan;100672.78;4999833;28;20033;-84
2022/12/25 01:58:22;;;;;;;;;;;;;;;10.14;nan;100671.13;4989715;28;20641;-85
2022/12/25 02:00:50;;;;;;;3.50;1.80;;;;;;;10.13;nan;100683.53;4993757;28;19918;-86
2022/12/25 02:03:17;;;;;;;4.07;1.70;;;;;;;10.11;nan;100674.09;4984520;28;20069;-85
2022/12/25 02:05:45;;;;;;;4.07;1.40;;;;;;;10.13;nan;100669.47;4987276;28;20034;-85
2022/12/25 02:08:13;;;;;;;5.20;1.65;;;;;;;10.13;nan;100669.47;4979742;28;20034;-85
2022/12/25 02:10:38;;;;;;;5.65;1.90;;;;;;;10.16;nan;100661.25;4980530;28;20043;-85
2022/12/25 02:13:05;;;;;;;4.13;1.90;;;;;;;10.15;nan;100654.28;4986732;28;20130;-86
2022/12/25 02:15:39;;;;;;;4.82;2.00;;;;;;;10.14;nan;100642.06;4987880;28;20389;-86
2022/12/25 02:18:50;;;;;;;5.10;2.03;;;;;;;10.11;nan;100637.91;4998154;28;20034;-85
2022/12/25 02:21:54;;;;;;;6.70;1.92;;;;;;;10.13;nan;100627.19;5002723;28;20038;-85
2022/12/25 02:24:38;;;;;;;5.10;1.75;;;;;;;10.11;nan;100629.16;4979752;28;20070;-86
2022/12/25 02:27:13;;;;;;;4.25;1.67;;;;;;;10.11;nan;100626.53;4989899;28;20557;-86
2022/12/25 02:29:50;;;;;;;4.70;2.10;;;;;;;10.06;nan;100616.41;4987135;28;20074;-85
2022/12/25 02:32:50;;;;;;;4.70;1.70;;;;;;;10.05;nan;100622.63;4990916;28;20042;-86
2022/12/25 02:35:24;;;;;;;5.13;1.70;;;;;;;10.05;nan;100625.28;4986196;28;20121;-86
2022/12/25 02:38:03;;;;;;;3.33;1.60;;;;;;;10.06;nan;100621.69;4984375;28;20042;-86
2022/12/25 02:40:39;;;;;;;5.35;1.60;;;;;;;10.09;nan;100626.66;4990791;28;20060;-86
2022/12/25 03:08:29;;;;;;;4.55;1.58;;;;;;;10.10;nan;100583.38;4990283;28;20041;-87
2022/12/25 03:13:50;;;;;;;4.85;1.50;;;;;;;10.17;nan;100576.53;4987551;28;20065;-86
2022/12/25 03:26:53;;;;;;;2.85;1.10;;;;;;;10.24;nan;100579.44;4991074;28;20566;-87
2022/12/25 03:27:20;;;;;;;;;;;;;;;10.21;nan;100563.88;5006796;28;20045;-86
2022/12/25 03:32:37;;;;;;;2.28;1.20;;;;;;;10.17;nan;100549.28;4990915;28;20272;-86
2022/12/25 03:35:23;;;;;;;3.30;1.27;;;;;;;10.13;nan;100559.34;4988830;28;20454;-86
2022/12/25 04:36:39;;;;;;;2.22;1.10;;;;;;;9.52;nan;100530.84;4984499;28;20040;-86
2022/12/25 04:39:05;;;;;;;2.35;1.10;;;;;;;9.50;nan;100532.81;4990139;28;20038;-86
2022/12/25 04:41:30;;;;;;;1.90;1.13;;;;;;;9.49;nan;100539.06;4992017;28;20464;-87
2022/12/25 04:43:55;;;;;;;2.17;1.17;;;;;;;9.48;nan;100530.28;4990805;28;20049;-86
2022/12/25 04:46:20;;;;;;;2.00;1.00;;;;;;;9.49;nan;100537.25;4984924;28;20138;-86
2022/12/25 04:48:46;;;;;;;1.67;0.90;;;;;;;9.50;nan;100536.25;4989319;28;20057;-86
2022/12/25 04:51:17;;;;;;;1.55;0.90;;;;;;;9.51;nan;100543.22;4987111;28;20113;-86
2022/12/25 04:53:43;;;;;;;3.35;1.17;;;;;;;9.51;nan;100545.88;4989230;28;20038;-86
2022/12/25 04:56:09;;;;;;;2.75;1.20;;;;;;;9.51;nan;100542.38;4989093;28;20499;-86
2022/12/25 04:58:34;;;;;;;1.63;0.98;;;;;;;9.54;nan;100542.94;4989543;28;20065;-86
2022/12/25 05:01:01;;;;;;;3.47;1.33;;;;;;;9.53;nan;100543.06;4989939;28;20052;-86
2022/12/25 05:03:27;;;;;;;2.70;1.10;;;;;;;9.55;nan;100538.47;4986601;28;20044;-87
2022/12/25 05:05:52;;;;;;;2.55;1.23;;;;;;;9.59;nan;100539.84;4989770;28;20121;-86
2022/12/25 05:08:18;;;;;;;1.90;0.90;;;;;;;9.60;nan;100535.41;4988245;28;20066;-85
2022/12/25 05:10:43;;;;;;;2.33;1.13;;;;;;;9.64;nan;100531.50;4985848;28;20089;-86
2022/12/25 05:13:08;;;;;;;2.33;1.10;;;;;;;9.64;nan;100532.31;4981274;28;20100;-87
2022/12/25 05:15:34;;;;;;;1.77;1.00;;;;;;;9.65;nan;100528.69;4989014;28;20038;-86
2022/12/25 05:17:59;;;;;;;4.63;1.85;;;;;;;9.62;nan;100531.63;4986187;28;20497;-87
2022/12/25 05:20:24;;;;;;;2.85;1.35;;;;;;;9.63;nan;100524.53;4980346;28;20031;-86
2022/12/25 05:22:50;;;;;;;3.50;1.30;;;;;;;9.61;nan;100529.16;4986568;28;20046;-86
2022/12/25 05:25:15;;;;;;;3.80;1.48;;;;;;;9.58;nan;100527.63;4987328;28;20377;-87
2022/12/25 05:27:40;;;;;;;3.65;1.23;;;;;;;9.60;nan;100528.31;4988532;28;20030;-86
2022/12/25 05:30:07;;;;;;;2.35;1.10;;;;;;;9.64;nan;100521.78;4984953;28;20142;-86
2022/12/25 05:32:32;;;;;;;3.58;1.40;;;;;;;9.65;nan;100519.94;4988174;28;20101;-86
2022/12/25 05:34:59;;;;;;;2.42;0.90;;;;;;;9.69;nan;100514.22;4988812;28;20038;-86
2022/12/25 05:37:24;;;;;;;2.20;1.20;;;;;;;9.70;nan;100505.34;4987436;28;20066;-86
2022/12/25 05:39:49;;;;;;;3.20;1.38;;;;;;;9.71;nan;100511.47;4988566;28;20111;-86
2022/12/25 05:42:15;;;;;;;3.92;1.80;;;;;;;9.58;nan;100517.06;4986727;28;20031;-87
2022/12/25 05:44:40;;;;;;;4.70;1.80;;;;;;;9.54;nan;100513.88;4987988;28;20138;-87
2022/12/25 05:47:05;;;;;;;3.22;2.03;;;;;;;9.58;nan;100506.50;4987498;28;20031;-86
2022/12/25 05:49:30;;;;;;;2.80;1.67;;;;;;;9.61;nan;100500.13;4992963;28;20034;-86
2022/12/25 05:51:56;;;;;;;3.50;1.55;;;;;;;9.64;nan;100499.81;4987298;28;20089;-86
2022/12/25 05:54:21;;;;;;;3.63;1.60;;;;;;;9.68;nan;100503.84;4988375;28;20054;-86
2022/12/25 05:56:46;;;;;;;4.28;1.70;;;;;;;9.72;nan;100507.81;4989010;28;20431;-86
2022/12/25 05:59:11;;;;;;;3.63;1.80;;;;;;;9.73;nan;100520.06;4988185;28;20049;-87
2022/12/25 06:01:37;;;;;;;3.05;1.80;;;;;;;9.72;nan;100521.84;4987314;28;20030;-86
2022/12/25 06:04:02;;;;;;;6.03;2.83;;;;;;;9.65;nan;100527.88;4988110;28;20034;-88
2022/12/25 06:06:27;;;;;;;5.47;2.08;;;;;;;9.66;nan;100540.94;4986869;28;20037;-86
2022/12/25 06:08:54;;;;;;;2.80;1.90;;;;;;;9.67;nan;100537.31;4986632;28;20567;-87
2022/12/25 06:11:19;;;;;;;3.63;1.95;;;;;;;9.69;nan;100539.81;4981240;28;20028;-86
2022/12/25 06:13:48;;;;;;;3.67;1.63;;;;;;;9.72;nan;100542.16;4987104;28;20113;-87
2022/12/25 06:16:14;;;;;;;2.05;1.25;;;;;;;9.72;nan;100527.13;4986936;28;22413;-87
2022/12/25 06:18:42;;;;;;;3.55;1.50;;;;;;;9.73;nan;100522.72;4984334;28;20041;-86
2022/12/25 06:21:09;;;;;;;3.67;1.40;;;;;;;9.75;nan;100528.69;4988223;28;20030;-86
2022/12/25 06:23:35;;;;;;;3.65;1.70;;;;;;;9.74;nan;100527.00;4988567;28;20504;-87
2022/12/25 06:26:06;;;;;;;2.70;1.50;;;;;;;9.73;nan;100512.16;4986115;28;20034;-86
2022/12/25 06:28:31;;;;;;;4.38;2.00;;;;;;;9.72;nan;100513.94;4986179;28;20038;-86
2022/12/25 06:30:57;;;;;;;3.30;1.85;;;;;;;9.73;nan;100507.69;4987481;28;20038;-85
2022/12/25 06:33:22;;;;;;;2.50;1.40;;;;;;;9.72;nan;100506.00;4990059;28;20062;-86
2022/12/25 06:35:48;;;;;;;3.85;1.83;;;;;;;9.67;nan;100499.53;4989781;28;20030;-86
2022/12/25 06:38:13;;;;;;;4.82;1.88;;;;;;;9.60;nan;100498.44;4990427;28;20117;-86
2022/12/25 06:40:38;;;;;;;3.92;1.80;;;;;;;9.59;nan;100496.78;5007840;28;20026;-86
2022/12/25 06:43:03;;;;;;;3.22;1.98;;;;;;;9.66;nan;100485.50;4977424;28;20030;-86
2022/12/25 06:45:29;;;;;;;4.63;2.30;;;;;;;9.73;nan;100480.47;5001563;28;20590;-86
2022/12/25 06:47:54;;;;;;;5.40;2.28;;;;;;;9.78;nan;100489.59;4987725;28;20069;-87
2022/12/25 06:50:19;;;;;;;5.07;1.88;;;;;;;9.81;nan;100485.81;4981335;28;20034;-87
2022/12/25 06:52:44;;;;;;;3.17;1.85;;;;;;;9.85;nan;100489.84;4986952;28;20544;-87
2022/12/25 06:55:10;;;;;;;4.28;1.92;;;;;;;9.89;nan;100493.00;4990240;28;20041;-86
2022/12/25 06:57:35;;;;;;;2.92;1.90;;;;;;;9.91;nan;100488.41;4986993;28;20034;-86
2022/12/25 07:00:00;;;;;;;3.50;1.88;;;;;;;9.93;nan;100495.19;4989152;28;20118;-87
2022/12/25 07:02:26;;;;;;;3.45;2.00;;;;;;;9.95;nan;100495.06;4986931;28;20042;-86
2022/12/25 07:04:52;;;;;;;4.15;1.83;;;;;;;9.96;nan;100494.06;4983138;28;20749;-86
2022/12/25 07:07:18;;;;;;;3.83;1.50;;;;;;;9.95;nan;100497.72;4989823;28;20535;-87
2022/12/25 07:09:43;;;;;;;3.17;1.90;;;;;;;9.97;nan;100495.75;4986894;28;20072;-87
2022/12/25 07:12:22;;;;;;;2.78;1.67;;;;;;;9.99;nan;100501.72;4984358;28;20054;-86
2022/12/25 07:14:48;;;;;;;2.67;1.38;;;;;;;9.98;nan;100492.94;4990012;28;20038;-87
2022/12/25 07:17:18;;;;;;;2.03;1.20;;;;;;;10.04;nan;100496.00;4988492;28;20118;-87
2022/12/25 07:19:45;;;;;;;3.20;1.70;;;;;;;10.05;nan;100490.53;4989795;28;20452;-86
2022/12/25 07:22:10;;;;;;;3.60;1.50;;;;;;;10.04;nan;100474.84;4987823;28;20037;-86
2022/12/25 07:24:36;;;;;;;3.22;1.60;;;;;;;10.04;nan;100475.69;4995098;28;20038;-86
2022/12/25 07:27:01;;;;;;;2.42;1.60;;;;;;;10.03;nan;100471.38;4995412;28;20389;-86
2022/12/25 07:29:26;;;;;;;4.45;1.60;;;;;;;10.02;nan;100461.78;4993719;28;20117;-87
2022/12/25 07:31:52;;;;;;;2.83;1.55;;;;;;;10.02;nan;100456.50;4987162;28;20440;-86
2022/12/25 07:34:18;;;;;;;3.17;1.73;;;;;;;9.98;nan;100455.97;4991721;28;20073;-86
2022/12/25 07:36:43;;;;;;;3.20;1.85;;;;;;;9.93;nan;100452.94;4991926;28;20096;-87
2022/12/25 07:39:09;;;;;;;4.68;2.05;;;;;;;9.90;nan;100449.78;4992487;28;20061;-86
2022/12/25 07:41:35;;;;;;;3.83;2.00;;;;;;;9.92;nan;100451.28;4990418;28;20034;-86
2022/12/25 07:44:00;;;;;;;4.03;1.85;;;;;;;9.91;nan;100457.53;4990284;28;20038;-86
2022/12/25 07:46:27;;;;;;;3.08;1.90;;;;;;;9.92;nan;100467.13;4991653;28;20042;-86
2022/12/25 07:48:52;;;;;;;2.85;2.03;;;;;;;9.97;nan;100456.94;4985253;28;20042;-86
2022/12/25 07:51:17;;;;;;;4.00;2.00;;;;;;;10.01;nan;100454.84;4990933;28;20053;-87
2022/12/25 07:53:43;;;;;;;3.33;1.58;;;;;;;10.03;nan;100460.78;4992213;28;20042;-87
2022/12/25 07:56:14;;;;;;;3.97;1.38;;;;;;;10.08;nan;100470.91;4990749;28;20034;-86
2022/12/25 07:58:39;;;;;;;2.72;1.40;;;;;;;10.12;nan;100472.28;4991199;28;20030;-88
2022/12/25 08:01:18;;;;;;;1.58;1.10;;;;;;;10.15;nan;100471.97;4983268;28;20571;-86
2022/12/25 08:03:54;;;;;;;1.98;1.35;;;;;;;10.15;nan;100475.47;4992140;28;20038;-87
2022/12/25 08:06:21;;;;;;;1.90;1.10;;;;;;;10.17;nan;100489.34;4990129;28;20507;-87
2022/12/25 08:08:47;;;;;;;1.73;1.02;;;;;;;10.19;nan;100490.03;4982215;28;20035;-84
2022/12/25 08:11:12;;;;;;;1.50;1.02;;;;;;;10.23;nan;100487.09;4980231;28;20039;-87
2022/12/25 08:13:38;;;;;;;1.70;0.90;;;;;;;10.29;nan;100475.94;4991163;28;20031;-87
2022/12/25 08:16:09;;;;;;;2.03;1.10;;;;;;;10.34;nan;100484.25;4989860;28;20046;-86
2022/12/25 08:18:36;;;;;;;1.63;1.20;;;;;;;10.40;nan;100473.09;5007188;28;20701;-87
2022/12/25 08:21:04;;;;;;;2.38;1.50;;;;;;;10.42;nan;100473.75;4991782;28;20377;-87
2022/12/25 08:23:32;;;;;;;2.30;1.42;;;;;;;10.45;nan;100470.81;4993481;28;20057;-88
2022/12/25 08:26:01;;;;;;;4.13;1.90;;;;;;;10.43;nan;100459.56;4988516;28;20097;-88
2022/12/25 08:28:28;;;;;;;4.00;1.98;;;;;;;10.38;nan;100456.53;4992670;28;20386;-87
2022/12/25 08:30:53;;;;;;;2.88;1.90;;;;;;;10.38;nan;100467.09;4990084;28;20105;-87
2022/12/25 08:33:19;;;;;;;3.55;1.80;;;;;;;10.38;nan;100457.38;5010701;28;20041;-87
2022/12/25 08:35:44;;;;;;;2.75;1.30;;;;;;;10.45;nan;100475.28;4995491;28;20046;-88
2022/12/25 08:38:10;;;;;;;2.60;1.20;;;;;;;10.47;nan;100468.84;4989168;28;20719;-88
2022/12/25 08:40:35;;;;;;;2.58;1.30;;;;;;;10.50;nan;100459.78;4986503;28;20056;-85
2022/12/25 08:43:03;;;;;;;3.65;1.42;;;;;;;10.53;nan;100452.34;4985290;28;20123;-88
2022/12/25 08:45:29;;;;;;;2.95;1.73;;;;;;;10.54;nan;100434.69;4984584;28;20567;-88
2022/12/25 08:47:55;;;;;;;3.10;2.03;;;;;;;10.58;nan;100415.72;4991208;28;20065;-87
2022/12/25 08:50:21;;;;;;;3.58;1.60;;;;;;;10.64;nan;100379.91;4993812;28;20100;-86
2022/12/25 08:52:47;;;;;;;4.28;1.80;;;;;;;10.74;nan;100353.34;4987705;28;20065;-87
2022/12/25 08:55:12;;;;;;;3.25;1.50;;;;;;;10.84;nan;100357.53;4988249;28;20039;-87
2022/12/25 08:57:37;;;;;;;2.40;1.30;;;;;;;10.93;nan;100379.56;4989343;28;20455;-87
2022/12/25 09:00:03;;;;;;;2.28;1.42;;;;;;;11.02;nan;100385.72;4986044;28;20135;-86
2022/12/25 09:02:28;;;;;;;1.70;1.00;;;;;;;11.12;nan;100397.00;4989163;28;20030;-86
2022/12/25 09:04:53;;;;;;;2.42;1.20;;;;;;;11.23;nan;100402.03;4986047;28;20038;-86
2022/12/25 09:07:19;;;;;;;1.58;1.10;;;;;;;11.32;nan;100416.16;4990820;28;20043;-87
2022/12/25 09:09:44;;;;;;;2.08;1.20;;;;;;;11.39;nan;100411.00;4982730;28;20050;-86
2022/12/25 09:12:09;;;;;;;2.75;1.30;;;;;;;11.46;nan;100417.31;4988235;28;20038;-86
2022/12/25 09:14:35;;;;;;;2.55;1.35;;;;;;;11.53;nan;100430.75;4982052;28;20040;-86
2022/12/25 09:17:01;;;;;;;1.60;1.10;;;;;;;11.54;nan;100441.22;4991020;28;20031;-86
2022/12/25 09:19:26;;;;;;;2.03;1.05;;;;;;;11.59;nan;100448.69;4991208;28;20057;-86
2022/12/25 09:21:52;;;;;;;1.10;0.88;;;;;;;11.65;nan;100459.44;4985277;28;20073;-87
2022/12/25 09:24:17;;;;;;;2.10;1.25;;;;;;;11.66;nan;100455.81;4984109;28;20169;-87
2022/12/25 09:26:43;;;;;;;2.30;1.20;;;;;;;11.69;nan;100442.25;4993138;28;20061;-86
2022/12/25 09:29:08;;;;;;;2.67;1.40;;;;;;;11.69;nan;100447.53;4991786;28;20038;-87
2022/12/25 09:31:33;;;;;;;5.40;2.25;;;;;;;11.64;nan;100447.19;4991413;28;20619;-86
2022/12/25 09:33:59;;;;;;;3.78;2.35;;;;;;;11.59;nan;100460.09;4989895;28;20046;-87
2022/12/25 09:36:24;;;;;;;4.45;2.10;;;;;;;11.68;nan;100464.44;4985880;28;20366;-86
2022/12/25 09:38:50;;;;;;;3.88;2.70;;;;;;;11.73;nan;100463.94;4978472;28;20038;-86
2022/12/25 09:41:25;;;;;;;4.20;2.70;;;;;;;11.74;nan;100467.44;4989585;28;20030;-87
2022/12/25 09:44:00;;;;;;;4.75;2.55;;;;;;;11.77;nan;100452.03;4989776;28;20050;-87
2022/12/25 09:46:27;;;;;;;6.22;2.50;;;;;;;11.79;nan;100442.09;4987458;28;20034;-87
2022/12/25 09:49:06;;;;;;;4.18;2.42;;;;;;;11.82;nan;100436.50;4988779;28;20471;-87
2022/12/25 09:51:36;;;;;;;4.50;2.40;;;;;;;11.91;nan;100434.69;4979850;28;20093;-87
2022/12/25 09:54:23;;;;;;;4.32;2.38;;;;;;;12.05;nan;100431.41;4988060;28;20034;-87
2022/12/25 09:56:48;;;;;;;4.45;2.58;;;;;;;12.06;nan;100429.59;4980114;28;20077;-87
2022/12/25 09:59:23;;;;;;;3.55;2.17;;;;;;;12.02;nan;100420.31;4989222;28;20061;-87
2022/12/25 10:02:26;;;;;;;2.97;1.90;;;;;;;12.03;nan;100419.31;4988404;28;20030;-87
2022/12/25 10:04:57;;;;;;;4.38;2.20;;;;;;;12.27;nan;100418.50;4989474;28;20096;-87
2022/12/25 10:07:36;;;;;;;3.33;1.90;;;;;;;12.49;nan;100406.44;4985713;28;20570;-87
2022/12/25 10:10:28;;;;;;;3.22;1.95;;;;;;;12.58;nan;100391.31;4989637;28;20038;-87
2022/12/25 10:13:03;;;;;;;4.88;1.85;;;;;;;12.45;nan;100387.34;4986347;28;20054;-87
2022/12/25 10:15:48;;;;;;;2.85;1.75;;;;;;;12.35;nan;100373.44;4981571;28;20590;-87
2022/12/25 10:18:32;;;;;;;3.72;1.80;;;;;;;12.26;nan;100358.53;4980624;28;20068;-87
2022/12/25 10:21:01;;;;;;;2.55;1.50;;;;;;;12.35;nan;100362.84;4989006;28;20038;-88
2022/12/25 10:24:10;;;;;;;4.50;2.80;;;;;;;12.55;nan;100365.97;4990209;28;20031;-87
2022/12/25 10:26:35;;;;;;;3.65;2.58;;;;;;;12.84;nan;100367.22;4984492;28;20693;-87
2022/12/25 10:29:32;;;;;;;4.00;2.45;;;;;;;13.01;nan;100360.84;4989380;28;20058;-87
2022/12/25 10:31:57;;;;;;;4.93;2.90;;;;;;;13.07;nan;100362.81;4985004;28;20701;-87
2022/12/25 10:34:23;;;;;;;3.47;2.53;;;;;;;13.00;nan;100361.03;4977637;28;20038;-87
2022/12/25 10:36:49;;;;;;;4.70;2.80;;;;;;;12.85;nan;100360.94;4986599;28;20500;-87
2022/12/25 10:39:25;;;;;;;3.92;2.60;;;;;;;12.80;nan;100369.41;4981974;28;20038;-88
2022/12/25 10:42:09;;;;;;;3.67;2.20;;;;;;;12.84;nan;100360.06;4987464;28;20096;-87
2022/12/25 10:44:35;;;;;;;3.28;2.15;;;;;;;12.90;nan;100358.59;4999657;28;20090;-88
2022/12/25 10:47:02;;;;;;;3.88;2.47;;;;;;;12.95;nan;100354.41;4998860;28;20112;-87
2022/12/25 10:49:35;;;;;;;4.78;2.30;;;;;;;13.02;nan;100343.13;4995901;28;20034;-88
2022/12/25 10:52:02;;;;;;;3.97;2.60;;;;;;;12.96;nan;100345.44;4995552;28;20038;-87
2022/12/25 10:54:31;;;;;;;3.63;2.20;;;;;;;12.81;nan;100346.34;4994519;28;20407;-87
2022/12/25 10:57:22;;;;;;;3.40;2.20;;;;;;;12.63;nan;100347.38;4984030;28;20035;-87
2022/12/25 10:59:57;;;;;;;;;;;;;;;12.54;nan;100351.88;4993109;28;20066;-88
2022/12/25 11:02:34;;;;;;;2.95;1.80;;;;;;;12.47;nan;100352.72;4994035;28;20348;-87
2022/12/25 11:05:02;;;;;;;2.97;2.00;;;;;;;12.48;nan;100352.53;5004429;28;20038;-87
2022/12/25 11:07:28;;;;;;;3.55;2.00;;;;;;;12.57;nan;100347.22;4992149;28;20054;-87
2022/12/25 11:09:58;;;;;;;2.75;1.70;;;;;;;12.77;nan;100355.63;4993112;28;20403;-86
2022/12/25 11:12:30;;;;;;;2.60;1.42;;;;;;;12.95;nan;100350.94;4991812;28;20039;-87
2022/12/25 11:15:00;;;;;;;2.63;1.55;;;;;;;13.11;nan;100352.72;4986819;28;20535;-87
2022/12/25 11:17:26;;;;;;;2.35;1.60;;;;;;;13.22;nan;100341.69;4999707;28;20038;-87
2022/12/25 11:19:57;;;;;;;3.10;1.88;;;;;;;13.28;nan;100345.53;4988400;28;20043;-87
2022/12/25 11:22:24;;;;;;;2.55;1.50;;;;;;;13.38;nan;100352.25;5006478;28;20060;-87
2022/12/25 11:24:49;;;;;;;2.53;1.80;;;;;;;13.50;nan;100351.88;4987968;28;20030;-87
2022/12/25 11:27:22;;;;;;;2.40;1.80;;;;;;;13.59;nan;100345.50;4978650;28;20435;-87
2022/12/25 11:30:03;;;;;;;3.30;1.88;;;;;;;13.58;nan;100339.34;4974418;28;20042;-87
2022/12/25 11:32:33;;;;;;;3.53;1.98;;;;;;;13.47;nan;100344.25;4987371;28;20400;-87
2022/12/25 11:35:00;;;;;;;2.60;1.85;;;;;;;13.41;nan;100342.28;4992185;28;20042;-87
2022/12/25 11:37:33;;;;;;;3.55;2.10;;;;;;;13.35;nan;100328.72;4984388;28;20030;-87
2022/12/25 11:39:59;;;;;;;2.50;1.90;;;;;;;13.33;nan;100324.56;4999080;28;20047;-88
2022/12/25 11:42:40;;;;;;;3.33;1.90;;;;;;;13.25;nan;100324.56;4987890;28;20126;-87
2022/12/25 11:45:14;;;;;;;3.38;2.00;;;;;;;13.25;nan;100327.22;4990104;28;20034;-87
2022/12/25 11:47:39;;;;;;;3.75;2.03;;;;;;;13.37;nan;100326.72;4990195;28;20030;-88
2022/12/25 11:50:33;;;;;;;2.97;1.95;;;;;;;13.53;nan;100311.66;4977429;28;20050;-88
2022/12/25 11:53:05;;;;;;;2.92;1.70;;;;;;;13.67;nan;100310.06;4983330;28;20057;-90
2022/12/25 11:55:36;;;;;;;2.75;1.48;;;;;;;13.79;nan;100311.31;4974701;28;20501;-87
2022/12/25 11:58:22;;;;;;;2.38;1.48;;;;;;;13.90;nan;100310.06;4993098;28;20035;-87
2022/12/25 12:00:51;;;;;;;1.80;1.20;;;;;;;14.00;nan;100314.13;4990161;28;20035;-87
2022/12/25 12:03:36;;;;;;;2.78;1.92;;;;;;;13.98;nan;100288.72;4992587;28;20049;-87
2022/12/25 12:06:47;;;;;;;3.70;2.15;;;;;;;13.79;nan;100274.91;4990667;28;20559;-87
2022/12/25 12:09:21;;;;;;;3.55;2.20;;;;;;;13.73;nan;100259.72;4983474;28;20173;-87
2022/12/25 12:11:57;;;;;;;3.25;2.33;;;;;;;13.75;nan;100251.53;4990987;28;20041;-87
2022/12/25 12:14:51;;;;;;;3.92;2.50;;;;;;;13.62;nan;100241.53;4991815;28;20165;-87
2022/12/25 12:17:18;;;;;;;3.70;2.25;;;;;;;13.57;nan;100249.22;4991968;28;20037;-86
2022/12/25 12:19:43;;;;;;;3.15;2.20;;;;;;;13.62;nan;100238.06;4991851;28;20288;-86
2022/12/25 12:22:19;;;;;;;3.47;2.30;;;;;;;13.58;nan;100232.25;4990461;28;20119;-87
2022/12/25 12:24:52;;;;;;;4.13;2.30;;;;;;;13.48;nan;100240.47;4984787;28;20042;-86
2022/12/25 12:27:37;;;;;;;3.88;2.65;;;;;;;13.36;nan;100228.63;4970969;28;20053;-88
2022/12/25 12:30:05;;;;;;;3.90;2.20;;;;;;;13.22;nan;100232.00;4970945;28;20130;-86
2022/12/25 12:32:46;;;;;;;2.97;2.05;;;;;;;13.21;nan;100230.34;4954278;28;20039;-87
2022/12/25 12:35:11;;;;;;;;;;;;;;;13.30;nan;100234.63;4967933;28;20446;-87
2022/12/25 12:37:39;;;;;;;3.20;1.93;;;;;;;13.42;nan;100253.63;4954682;28;19972;-87
2022/12/25 12:40:20;;;;;;;3.05;2.20;;;;;;;13.46;nan;100261.06;4971016;28;20035;-86
2022/12/25 12:42:49;;;;;;;3.15;2.00;;;;;;;13.55;nan;100264.50;4966172;28;20692;-87
2022/12/25 12:45:17;;;;;;;3.10;2.05;;;;;;;13.58;nan;100275.56;4971629;28;20049;-87
2022/12/25 12:47:46;;;;;;;5.07;2.70;;;;;;;13.53;nan;100277.13;4971300;28;20046;-87
2022/12/25 12:50:39;;;;;;;3.80;2.70;;;;;;;13.56;nan;100282.06;4972328;28;20058;-87
2022/12/25 12:53:29;;;;;;;2.95;2.10;;;;;;;13.53;nan;100296.53;4971620;28;20047;-87
2022/12/25 12:55:55;;;;;;;3.53;2.30;;;;;;;13.59;nan;100289.72;4972664;28;20035;-86
2022/12/25 12:58:32;;;;;;;4.03;2.40;;;;;;;13.53;nan;100285.91;4970327;28;20041;-87
2022/12/25 13:01:16;;;;;;;2.78;1.98;;;;;;;13.51;nan;100281.78;4964888;28;20066;-86
2022/12/25 13:04:16;;;;;;;5.28;2.60;;;;;;;13.45;nan;100274.53;4953760;28;20031;-87
2022/12/25 13:07:07;;;;;;;4.15;2.53;;;;;;;13.41;nan;100270.56;4958137;28;20035;-87
2022/12/25 13:09:45;;;;;;;4.25;2.60;;;;;;;13.30;nan;100271.78;4988874;28;20031;-87
2022/12/25 13:12:11;;;;;;;4.47;2.67;;;;;;;13.30;nan;100261.16;4989660;28;20035;-86
2022/12/25 13:14:37;;;;;;;3.38;2.15;;;;;;;13.36;nan;100249.84;4965851;28;20081;-87
2022/12/25 13:17:06;;;;;;;3.25;2.35;;;;;;;13.46;nan;100236.34;4971617;28;20569;-87
2022/12/25 13:19:34;;;;;;;4.53;2.50;;;;;;;13.60;nan;100238.22;4970614;28;20120;-87
2022/12/25 13:22:03;;;;;;;4.13;2.22;;;;;;;13.71;nan;100231.66;4970028;28;20059;-87
2022/12/25 13:24:34;;;;;;;3.17;2.20;;;;;;;13.79;nan;100240.38;4971214;28;20560;-86
2022/12/25 13:27:01;;;;;;;3.08;2.20;;;;;;;13.91;nan;100232.78;4971746;28;20031;-87
2022/12/25 13:29:32;;;;;;;2.60;1.70;;;;;;;14.02;nan;100235.03;4970047;28;20030;-86
2022/12/25 13:31:58;;;;;;;;;;;;;;;14.00;nan;100233.56;4970773;28;20039;-86
2022/12/25 13:34:42;;;;;;;3.13;1.83;;;;;;;14.01;nan;100240.50;4970869;28;19921;-87
2022/12/25 13:37:17;;;;;;;3.88;2.03;;;;;;;14.07;nan;100223.03;4971701;28;20039;-88
2022/12/25 13:39:48;;;;;;;3.33;2.22;;;;;;;14.09;nan;100223.66;4965970;28;20444;-87
2022/12/25 13:42:15;;;;;;;;;;;;;;;14.05;nan;100223.19;4971375;28;20534;-86